Turbett, Pennsylvania
Current Conditions -  °F | °C
As of 8:53 AM on Wednesday 28 Jan 2015 (Local Time) from KUNV Reporting Station
Clear Clear  
Wind Chill:   Ceiling: Unl
Heat Index: 14°   Visibility: 10mi
Dew Point:   Wind: 6mph
Humidity: 62%   Direction: 270°W
Pressure: 30.21"   Gusts: NA
Location:  40.4991°N, 77.4687°W
Report Text: KUNV 281353Z 27005KT 10SM SKC M10/M16 A3021
Loading
Personal Weather Stations






























Interactive Weather Map New forecast layout! Learn more

10-Day Weather Forecast

Advertisements
Track Severe Weather on mobile